Flight Track Log - Related Links

Times and Time Zones

All times are in EST time to prevent confusion due to time zone crossing. See the AWE864 flight status page for this flight to view local times or setup timezone preferences in your user account.

Time Position Orientation Groundspeed Altitude Reporting Facility
EST Latitude Longitude Course Direction KTS MPH feet Rate Location/Type
Mon 04:56:01 PM 35.8822 -78.7761 270° West 151 174 1,300  Level Washington Center
Mon 04:56:07 PM 35.8883 -78.7736 18° North 144 166 1,800 2,364 Climbing Washington Center
Mon 04:57:07 PM 35.9286 -78.7497 26° Northeast 172 198 3,900 2,000 Climbing Washington Center
Mon 04:58:07 PM 35.9853 -78.7442 North 260 299 5,800 1,899 Climbing Washington Center
Mon 04:58:26 PM 36.0036 -78.7631 320° Northwest 268 308 6,400 3,150 Climbing Washington Center
Mon 04:59:27 PM 36.0456 -78.8289 308° West 259 298 10,000 2,847 Climbing Washington Center
Mon 05:00:00 PM 35.8242 -79.3678 264° West  Level FlightAware Approximate
Mon 05:00:24 PM 36.0247 -78.9050 251° West 226 260 12,000  Level Washington Center
Mon 05:02:26 PM 35.9625 -79.1078 245° Southwest 302 348 16,000 1,333 Climbing Washington Center
Mon 05:03:24 PM 35.9275 -79.2294 250° West 345 397 16,000  Level Washington Center
Mon 05:05:11 PM 35.8692 -79.4236 250° West 356 410 16,000  Level Atlanta Center
Mon 05:06:11 PM 35.8339 -79.5408 250° West 356 410 16,000  Level Atlanta Center
Mon 05:07:11 PM 35.8072 -79.6678 256° West 356 410 16,000  Level Atlanta Center
Mon 05:08:11 PM 35.8111 -79.7753 273° West 353 406 16,000  Level Atlanta Center
Mon 05:09:11 PM 35.8111 -79.8956 270° West 353 406 16,000  Level Atlanta Center
Mon 05:10:11 PM 35.8103 -79.9981 269° West 331 381 16,000  Level Atlanta Center
Mon 05:10:37 PM 35.8100 -80.0544 270° West 300 345 16,000  Level Atlanta Center
Mon 05:11:11 PM 35.8094 -80.1031 269° West 319 367 16,000 -319 Level Atlanta Center
Mon 05:12:11 PM 35.8106 -80.2028 271° West 307 353 15,500 -750 Descending Atlanta Center
Mon 05:12:15 PM 35.8114 -80.2258 273° West 293 337 15,200 -1,190 Descending Atlanta Center
Mon 05:14:17 PM 35.7431 -80.3853 242° Southwest 292 336 13,000 -750 Descending Atlanta Center
Mon 05:15:11 PM 35.6869 -80.4644 229° Southwest 303 349 13,000  Level Atlanta Center
Mon 05:15:12 PM 35.6831 -80.4669 208° Southwest 355 409 13,000  Level Atlanta Center
Mon 05:16:11 PM 35.6228 -80.5514 229° Southwest 325 374 13,000  Level Atlanta Center
Mon 05:16:13 PM 35.6208 -80.5542 229° Southwest 354 407 13,000  Level Atlanta Center
Mon 05:17:11 PM 35.5586 -80.6411 229° Southwest 345 397 13,000  Level Atlanta Center
Mon 05:17:14 PM 35.5567 -80.6461 244° Southwest 350 403 13,000  Level Atlanta Center
Mon 05:18:09 PM 35.4811 -80.7106 215° Southwest 363 418 13,000  Level Atlanta Center
Mon 05:18:11 PM 35.4772 -80.7133 210° Southwest 357 411 13,000 -1,574 Level Atlanta Center
Mon 05:19:10 PM 35.4058 -80.7747 215° Southwest 336 387 11,400 -1,600 Descending Atlanta Center
Mon 05:19:11 PM 35.4017 -80.7747 180° South 357 411 11,400 -1,377 Level Atlanta Center
Mon 05:20:11 PM 35.3303 -80.8364 215° Southwest 334 384 10,000 -1,273 Descending Atlanta Center
Mon 05:20:17 PM 35.3219 -80.8392 195° South 294 338 10,000 -627 Level Atlanta Center
Mon 05:21:18 PM 35.2489 -80.8369 179° South 246 283 9,300 -934 Descending Atlanta Center
Mon 05:22:19 PM 35.1839 -80.8317 176° South 217 250 8,100 -1,033 Descending Atlanta Center
Mon 05:23:20 PM 35.1211 -80.8267 176° South 226 260 7,200 -1,012 Descending Atlanta Center
Mon 05:26:22 PM 34.9539 -80.8128 219° Southwest 188 216 4,000 -790 Descending Atlanta Center
Mon 05:27:23 PM 34.9017 -80.8097 177° South 186 214 4,000  Level Atlanta Center
Mon 05:28:24 PM 34.8647 -80.8364 211° Southwest 199 229 4,000  Level Atlanta Center
Mon 05:29:13 PM 34.8767 -80.8917 285° West 209 241 4,000  Level Atlanta Center
Mon 05:30:26 PM 34.9419 -80.9144 344° North 213 245 4,000  Level Atlanta Center
Mon 05:31:26 PM 34.9983 -80.9200 355° North 202 232 4,000 -99 Level Atlanta Center
Mon 05:32:00 PM 35.2137 -80.9491 219° Southwest  Level Estimated
Mon 05:32:27 PM 35.0528 -80.9231 357° North 180 207 3,800  Level Atlanta Center
Mon 05:33:22 PM 35.0925 -80.9267 356° North 164 189 3,000 -879 Descending Atlanta Center
Mon 05:34:23 PM 35.1386 -80.9325 354° North 147 169 2,100 -835 Descending Atlanta Center
Mon 05:35:17 PM 35.1700 -80.9339 358° North 131 151 1,400 -778 Descending Atlanta Center
Mon 05:37:00 PM 35.2000 -80.9333 219° Southwest  Level FlightAware Approximate
Mon 05:44:00 PM 35.2137 -80.9491 219° Southwest  Level Estimated

Login

Don't have an account? Register now (free) for customized features, flight alerts, and more!